FW1657 Weather Reports


Display with metric or nautical units.
time (UTC)temp
F
wind
direction
speed
MPH
gust
MPH
rain 1hr
in
rain 24hr
in
rain mn
in
humidity
%
barometer
mb
20190324171620 50 174 3.0 8.0 0.00 0.00 0.00 65 1025.7
20190324170143 49 157 2.0 6.0 0.00 0.00 0.00 67 1025.7
20190324164638 49 135 3.0 10.0 0.00 0.00 0.00 67 1025.7
20190324163135 50 181 6.0 12.0 0.00 0.00 0.00 66 1025.6
20190324161701 50 192 2.0 11.0 0.00 0.00 0.00 67 1025.7
20190324160119 50 132 3.0 11.0 0.00 0.00 0.00 66 1025.8
20190324154630 50 172 3.0 11.0 0.00 0.00 0.00 66 1025.8
20190324153105 51 178 5.0 11.0 0.00 0.00 0.00 66 1025.6
20190324151644 52 174 3.0 11.0 0.00 0.00 0.00 64 1025.5
20190324150129 53 163 5.0 11.0 0.00 0.00 0.00 62 1025.4
20190324144626 55 182 4.0 10.0 0.00 0.00 0.00 59 1025.4
20190324143152 57 169 7.0 12.0 0.00 0.00 0.00 58 1025.3
20190324141618 57 173 5.0 11.0 0.00 0.00 0.00 57 1025.4
20190324134546 56 182 7.0 13.0 0.00 0.00 0.00 58 1025.5
20190324133051 54 190 7.0 11.0 0.00 0.00 0.00 59 1025.7
20190324131552 52 140 6.0 11.0 0.00 0.00 0.00 59 1025.8
20190324130137 52 139 3.0 10.0 0.00 0.00 0.00 60 1026.0
20190324124608 53 139 4.0 14.0 0.00 0.00 0.00 60 1026.1
20190324123059 55 189 3.0 9.0 0.00 0.00 0.00 58 1026.0
20190324121556 55 190 3.0 11.0 0.00 0.00 0.00 59 1026.0
20190324120107 55 128 3.0 10.0 0.00 0.00 0.00 58 1026.1
20190324114558 55 188 6.0 11.0 0.00 0.00 0.00 60 1026.5
20190324113040 53 140 3.0 10.0 0.00 0.00 0.00 63 1026.6
20190324111559 54 168 3.0 10.0 0.00 0.00 0.00 63 1026.5
20190324110111 56 201 1.0 6.0 0.00 0.00 0.00 60 1026.3
20190324104543 55 209 4.0 9.0 0.00 0.00 0.00 61 1026.3
20190324103024 54 238 3.0 10.0 0.00 0.00 0.00 62 1025.9
20190324101527 53 253 2.0 9.0 0.00 0.00 0.00 67 1026.2
20190324100007 52 209 4.0 9.0 0.00 0.00 0.00 70 1026.3
20190324094504 50 205 5.0 10.0 0.00 0.00 0.00 73 1026.5
20190324093157 49 209 5.0 10.0 0.00 0.00 0.00 75 1026.7
20190324091737 47 205 4.0 11.0 0.00 0.00 0.00 79 1026.6
20190324090121 46 241 5.0 11.0 0.00 0.00 0.00 80 1026.7
20190324084607 45 195 5.0 10.0 0.00 0.00 0.00 84 1026.8
20190324083108 44 230 6.0 11.0 0.00 0.00 0.00 85 1026.6
20190324081623 43 220 4.0 9.0 0.00 0.00 0.00 86 1026.7
20190324080117 42 192 6.0 11.0 0.00 0.00 0.00 87 1026.7
20190324074607 41 205 4.0 11.0 0.00 0.00 0.00 88 1026.9
20190324073109 40 197 4.0 7.0 0.00 0.00 0.00 89 1027.1
20190324071623 40 198 3.0 9.0 0.00 0.00 0.00 90 1027.0
20190324070108 39 186 3.0 7.0 0.00 0.00 0.00 90 1027.0
20190324064611 38 192 3.0 7.0 0.00 0.00 0.00 90 1027.1
20190324063045 38 197 2.0 5.0 0.00 0.00 0.00 89 1026.9
20190324061637 38 188 2.0 5.0 0.00 0.00 0.00 89 1026.9
20190324060126 37 211 3.0 6.0 0.00 0.00 0.00 89 1026.7
20190324054703 37 178 4.0 6.0 0.00 0.00 0.00 89 1026.7
20190324053053 37 194 3.0 6.0 0.00 0.00 0.00 88 1026.6
20190324051547 37 203 3.0 6.0 0.00 0.00 0.00 88 1026.4
20190324050100 37 203 2.0 5.0 0.00 0.00 0.00 88 1026.3
20190324044600 38 189 3.0 6.0 0.00 0.00 0.00 88 1026.3
20190324043048 38 186 3.0 6.0 0.00 0.00 0.00 87 1026.2
20190324041558 38 208 3.0 8.0 0.00 0.00 0.00 87 1026.2
20190324040056 38 219 5.0 9.0 0.00 0.00 0.00 87 1026.3
20190324034525 38 201 6.0 10.0 0.00 0.00 0.00 87 1026.4
20190324033059 38 208 4.0 10.0 0.00 0.00 0.00 87 1026.3
20190324031554 39 193 5.0 10.0 0.00 0.00 0.00 86 1026.4
20190324030050 39 184 6.0 10.0 0.00 0.00 0.00 86 1026.6
20190324024521 39 182 6.0 11.0 0.00 0.00 0.00 86 1026.7
20190324023015 39 190 5.0 11.0 0.00 0.00 0.00 86 1026.9
20190324021519 39 176 5.0 10.0 0.00 0.00 0.00 85 1027.0
20190324020019 39 187 7.0 10.0 0.00 0.00 0.00 85 1027.1
20190324014521 39 213 6.0 11.0 0.00 0.00 0.00 85 1027.3
20190324013013 39 234 5.0 10.0 0.00 0.00 0.00 84 1027.3
20190324011506 39 198 4.0 10.0 0.00 0.00 0.00 84 1027.4
20190324010005 39 215 5.0 9.0 0.00 0.00 0.00 83 1027.5
20190324004626 39 178 4.0 9.0 0.00 0.00 0.00 83 1027.7
20190324003220 40 191 5.0 9.0 0.00 0.00 0.00 82 1027.9
20190324001723 40 196 6.0 10.0 0.00 0.00 0.00 82 1027.9
20190324000241 40 180 5.0 10.0 0.00 0.00 0.00 81 1028.0
20190323234629 40 211 6.0 11.0 0.00 0.00 0.00 81 1028.1
20190323233120 40 208 4.0 8.0 0.00 0.00 0.00 80 1028.4
20190323231620 41 215 4.0 8.0 0.00 0.00 0.00 80 1028.5
20190323230129 41 192 4.0 9.0 0.00 0.00 0.00 79 1028.6
20190323224641 41 190 6.0 10.0 0.00 0.00 0.00 79 1028.9
20190323223123 41 191 6.0 12.0 0.00 0.00 0.00 78 1028.9
20190323221647 42 209 6.0 12.0 0.00 0.00 0.00 78 1029.1
20190323220129 42 206 6.0 12.0 0.00 0.00 0.00 78 1029.0
20190323214713 42 207 6.0 12.0 0.00 0.00 0.00 77 1029.0
20190323213102 42 209 7.0 12.0 0.00 0.00 0.00 77 1029.0
20190323211632 42 208 6.0 11.0 0.00 0.00 0.00 76 1029.1
20190323210053 43 195 7.0 14.0 0.00 0.00 0.00 76 1029.4
20190323204625 43 175 7.0 13.0 0.00 0.00 0.00 75 1029.4
20190323203105 44 217 7.0 13.0 0.00 0.00 0.00 75 1029.4
20190323201628 44 201 6.0 13.0 0.00 0.00 0.00 74 1029.4
20190323200044 44 157 6.0 11.0 0.00 0.00 0.00 74 1029.4
20190323194555 45 199 5.0 12.0 0.00 0.00 0.00 73 1029.5
20190323193058 46 212 5.0 12.0 0.00 0.00 0.00 72 1029.4
20190323191610 46 171 7.0 12.0 0.00 0.00 0.00 72 1029.4
20190323190107 47 198 4.0 8.0 0.00 0.00 0.00 71 1029.4
20190323184613 47 177 3.0 11.0 0.00 0.00 0.00 69 1029.2
20190323183115 48 184 3.0 10.0 0.00 0.00 0.00 69 1029.1
20190323181623 48 180 4.0 10.0 0.00 0.00 0.00 68 1028.7
20190323180047 49 188 3.0 12.0 0.00 0.00 0.00 67 1028.9
20190323174615 50 192 5.0 11.0 0.00 0.00 0.00 66 1028.7
20190323173056 51 186 6.0 14.0 0.00 0.00 0.00 65 1028.5